sensor_id;sensor_type;location;lat;lon;timestamp;pressure;altitude;pressure_sealevel;temperature;humidity
60974;BME280;46846;51.528;5.076;2022-09-09T00:01:32;100230.50;;;17.51;55.02
60974;BME280;46846;51.528;5.076;2022-09-09T00:07:00;100231.91;;;17.43;55.02
60974;BME280;46846;51.528;5.076;2022-09-09T00:09:31;100227.38;;;17.44;55.33
60974;BME280;46846;51.528;5.076;2022-09-09T00:12:04;100229.97;;;17.45;55.45
60974;BME280;46846;51.528;5.076;2022-09-09T00:15:00;100227.38;;;17.44;55.07
60974;BME280;46846;51.528;5.076;2022-09-09T00:17:41;100226.75;;;17.40;55.34
60974;BME280;46846;51.528;5.076;2022-09-09T00:20:31;100223.22;;;17.40;55.25
60974;BME280;46846;51.528;5.076;2022-09-09T00:26:10;100216.00;;;17.40;55.33
60974;BME280;46846;51.528;5.076;2022-09-09T00:28:50;100212.47;;;17.40;55.23
60974;BME280;46846;51.528;5.076;2022-09-09T00:31:23;100204.84;;;17.33;55.21
60974;BME280;46846;51.528;5.076;2022-09-09T00:33:50;100204.59;;;17.36;55.44
60974;BME280;46846;51.528;5.076;2022-09-09T00:36:23;100208.25;;;17.35;55.30
60974;BME280;46846;51.528;5.076;2022-09-09T00:38:59;100204.59;;;17.36;55.40
60974;BME280;46846;51.528;5.076;2022-09-09T00:49:46;100196.72;;;17.22;55.69
60974;BME280;46846;51.528;5.076;2022-09-09T00:52:55;100194.53;;;17.27;55.19
60974;BME280;46846;51.528;5.076;2022-09-09T00:55:41;100193.91;;;17.24;54.99
60974;BME280;46846;51.528;5.076;2022-09-09T00:58:10;100194.97;;;17.21;55.36
60974;BME280;46846;51.528;5.076;2022-09-09T01:00:42;100197.34;;;17.13;55.09
60974;BME280;46846;51.528;5.076;2022-09-09T01:06:10;100200.81;;;17.15;55.21
60974;BME280;46846;51.528;5.076;2022-09-09T01:11:30;100190.28;;;17.12;55.57
60974;BME280;46846;51.528;5.076;2022-09-09T01:14:04;100187.59;;;17.12;55.28
60974;BME280;46846;51.528;5.076;2022-09-09T01:16:35;100180.38;;;17.12;55.37
60974;BME280;46846;51.528;5.076;2022-09-09T01:19:02;100182.94;;;17.14;55.36
60974;BME280;46846;51.528;5.076;2022-09-09T01:24:15;100174.25;;;17.10;55.85
60974;BME280;46846;51.528;5.076;2022-09-09T01:26:44;100176.19;;;17.08;55.49
60974;BME280;46846;51.528;5.076;2022-09-09T01:29:13;100176.94;;;17.10;55.18
60974;BME280;46846;51.528;5.076;2022-09-09T01:34:13;100161.91;;;17.07;55.21
60974;BME280;46846;51.528;5.076;2022-09-09T01:36:44;100161.38;;;17.02;55.20
60974;BME280;46846;51.528;5.076;2022-09-09T01:39:11;100164.28;;;16.99;55.38
60974;BME280;46846;51.528;5.076;2022-09-09T01:41:38;100165.03;;;17.01;55.43
60974;BME280;46846;51.528;5.076;2022-09-09T01:44:04;100158.03;;;16.99;55.29
60974;BME280;46846;51.528;5.076;2022-09-09T01:46:31;100151.13;;;16.94;55.28
60974;BME280;46846;51.528;5.076;2022-09-09T01:48:57;100156.41;;;16.96;55.27
60974;BME280;46846;51.528;5.076;2022-09-09T01:51:24;100150.31;;;16.94;55.44
60974;BME280;46846;51.528;5.076;2022-09-09T01:53:49;100148.59;;;16.93;55.64
60974;BME280;46846;51.528;5.076;2022-09-09T02:04:38;100155.13;;;16.89;54.93
60974;BME280;46846;51.528;5.076;2022-09-09T02:07:14;100151.72;;;16.87;55.17
60974;BME280;46846;51.528;5.076;2022-09-09T02:09:42;100151.81;;;16.85;55.02
60974;BME280;46846;51.528;5.076;2022-09-09T02:12:14;100158.06;;;16.86;55.20
60974;BME280;46846;51.528;5.076;2022-09-09T02:14:50;100155.25;;;16.87;54.97
60974;BME280;46846;51.528;5.076;2022-09-09T02:17:20;100155.56;;;16.83;55.09
60974;BME280;46846;51.528;5.076;2022-09-09T02:19:55;100150.44;;;16.79;55.15
60974;BME280;46846;51.528;5.076;2022-09-09T02:22:24;100142.38;;;16.79;55.19
60974;BME280;46846;51.528;5.076;2022-09-09T02:24:53;100146.03;;;16.78;55.35
60974;BME280;46846;51.528;5.076;2022-09-09T02:27:21;100146.13;;;16.77;55.32
60974;BME280;46846;51.528;5.076;2022-09-09T02:29:49;100135.72;;;16.72;55.22
60974;BME280;46846;51.528;5.076;2022-09-09T02:32:17;100146.13;;;16.77;55.29
60974;BME280;46846;51.528;5.076;2022-09-09T02:34:50;100139.16;;;16.74;55.06
60974;BME280;46846;51.528;5.076;2022-09-09T02:37:19;100135.63;;;16.74;55.15
60974;BME280;46846;51.528;5.076;2022-09-09T02:39:46;100132.81;;;16.75;55.25
60974;BME280;46846;51.528;5.076;2022-09-09T02:42:12;100130.25;;;16.74;55.63
60974;BME280;46846;51.528;5.076;2022-09-09T02:44:39;100124.97;;;16.72;55.53
60974;BME280;46846;51.528;5.076;2022-09-09T02:55:38;100131.03;;;16.63;55.24
60974;BME280;46846;51.528;5.076;2022-09-09T02:58:07;100127.38;;;16.64;55.20
60974;BME280;46846;51.528;5.076;2022-09-09T03:00:33;100133.47;;;16.66;55.29
60974;BME280;46846;51.528;5.076;2022-09-09T03:03:05;100132.50;;;16.67;55.49
60974;BME280;46846;51.528;5.076;2022-09-09T03:05:30;100138.94;;;16.64;55.25
60974;BME280;46846;51.528;5.076;2022-09-09T03:07:57;100143.56;;;16.62;55.60
60974;BME280;46846;51.528;5.076;2022-09-09T03:10:22;100136.59;;;16.60;55.39
60974;BME280;46846;51.528;5.076;2022-09-09T03:12:48;100139.50;;;16.57;55.31
60974;BME280;46846;51.528;5.076;2022-09-09T03:15:13;100138.53;;;16.58;55.38
60974;BME280;46846;51.528;5.076;2022-09-09T03:17:40;100151.22;;;16.56;55.33
60974;BME280;46846;51.528;5.076;2022-09-09T03:20:06;100138.78;;;16.54;55.38
60974;BME280;46846;51.528;5.076;2022-09-09T03:22:32;100144.34;;;16.51;55.86
60974;BME280;46846;51.528;5.076;2022-09-09T03:24:58;100144.56;;;16.48;55.69
60974;BME280;46846;51.528;5.076;2022-09-09T03:27:23;100150.91;;;16.47;55.38
60974;BME280;46846;51.528;5.076;2022-09-09T03:29:48;100143.94;;;16.45;55.81
60974;BME280;46846;51.528;5.076;2022-09-09T03:32:16;100135.75;;;16.46;55.47
60974;BME280;46846;51.528;5.076;2022-09-09T03:34:43;100139.53;;;16.44;55.40
60974;BME280;46846;51.528;5.076;2022-09-09T03:37:08;100139.72;;;16.40;55.55
60974;BME280;46846;51.528;5.076;2022-09-09T03:39:33;100136.06;;;16.42;55.99
60974;BME280;46846;51.528;5.076;2022-09-09T03:41:59;100126.31;;;16.40;55.54
60974;BME280;46846;51.528;5.076;2022-09-09T03:44:24;100131.91;;;16.37;55.77
60974;BME280;46846;51.528;5.076;2022-09-09T03:46:49;100124.38;;;16.30;55.87
60974;BME280;46846;51.528;5.076;2022-09-09T03:49:15;100125.44;;;16.27;55.87
60974;BME280;46846;51.528;5.076;2022-09-09T03:51:41;100126.09;;;16.31;56.28
60974;BME280;46846;51.528;5.076;2022-09-09T03:54:07;100131.44;;;16.31;55.88
60974;BME280;46846;51.528;5.076;2022-09-09T03:56:35;100129.88;;;16.28;55.71
60974;BME280;46846;51.528;5.076;2022-09-09T03:59:00;100123.72;;;16.26;55.84
60974;BME280;46846;51.528;5.076;2022-09-09T04:01:26;100131.03;;;16.24;55.95
60974;BME280;46846;51.528;5.076;2022-09-09T04:03:52;100119.44;;;16.23;55.86
60974;BME280;46846;51.528;5.076;2022-09-09T04:06:17;100127.47;;;16.23;55.85
60974;BME280;46846;51.528;5.076;2022-09-09T04:08:43;100122.09;;;16.23;56.13
60974;BME280;46846;51.528;5.076;2022-09-09T04:11:10;100119.97;;;16.29;56.48
60974;BME280;46846;51.528;5.076;2022-09-09T04:13:36;100121.16;;;16.24;55.67
60974;BME280;46846;51.528;5.076;2022-09-09T04:16:06;100123.94;;;16.23;55.79
60974;BME280;46846;51.528;5.076;2022-09-09T04:18:31;100117.94;;;16.19;55.79
60974;BME280;46846;51.528;5.076;2022-09-09T04:20:57;100114.28;;;16.20;56.20
60974;BME280;46846;51.528;5.076;2022-09-09T04:23:25;100111.84;;;16.17;55.79
60974;BME280;46846;51.528;5.076;2022-09-09T04:25:52;100107.31;;;16.18;56.02
60974;BME280;46846;51.528;5.076;2022-09-09T04:28:20;100119.25;;;16.13;55.87
60974;BME280;46846;51.528;5.076;2022-09-09T04:30:46;100113.75;;;16.15;55.91
60974;BME280;46846;51.528;5.076;2022-09-09T04:33:13;100111.59;;;16.07;56.18
60974;BME280;46846;51.528;5.076;2022-09-09T04:35:39;100112.34;;;16.09;56.18
60974;BME280;46846;51.528;5.076;2022-09-09T04:38:08;100113.97;;;16.12;56.20
60974;BME280;46846;51.528;5.076;2022-09-09T04:40:34;100105.16;;;16.10;55.67
60974;BME280;46846;51.528;5.076;2022-09-09T04:43:02;100103.00;;;16.02;56.30
60974;BME280;46846;51.528;5.076;2022-09-09T04:45:30;100107.06;;;16.08;56.91
60974;BME280;46846;51.528;5.076;2022-09-09T04:47:56;100099.56;;;16.00;56.35
60974;BME280;46846;51.528;5.076;2022-09-09T04:50:21;100097.97;;;15.97;56.31
60974;BME280;46846;51.528;5.076;2022-09-09T04:52:46;100094.94;;;16.02;56.81
60974;BME280;46846;51.528;5.076;2022-09-09T04:55:12;100091.72;;;15.97;56.25
60974;BME280;46846;51.528;5.076;2022-09-09T04:57:38;100098.81;;;15.98;56.43
60974;BME280;46846;51.528;5.076;2022-09-09T05:00:05;100097.97;;;15.97;56.37
60974;BME280;46846;51.528;5.076;2022-09-09T05:02:30;100090.56;;;16.01;56.22
60974;BME280;46846;51.528;5.076;2022-09-09T05:04:57;100082.94;;;15.95;56.66
60974;BME280;46846;51.528;5.076;2022-09-09T05:07:23;100088.06;;;15.98;56.23
60974;BME280;46846;51.528;5.076;2022-09-09T05:09:48;100081.22;;;15.94;56.80
60974;BME280;46846;51.528;5.076;2022-09-09T05:12:17;100083.31;;;15.89;56.58
60974;BME280;46846;51.528;5.076;2022-09-09T05:14:43;100087.84;;;15.88;56.81
60974;BME280;46846;51.528;5.076;2022-09-09T05:17:10;100092.03;;;15.92;56.62
60974;BME280;46846;51.528;5.076;2022-09-09T05:19:35;100098.75;;;15.85;57.10
60974;BME280;46846;51.528;5.076;2022-09-09T05:22:01;100098.44;;;15.90;56.50
60974;BME280;46846;51.528;5.076;2022-09-09T05:24:27;100096.63;;;15.90;57.00
60974;BME280;46846;51.528;5.076;2022-09-09T05:26:52;100092.56;;;15.84;56.55
60974;BME280;46846;51.528;5.076;2022-09-09T05:29:18;100086.78;;;15.91;56.88
60974;BME280;46846;51.528;5.076;2022-09-09T05:31:45;100097.47;;;15.78;56.89
60974;BME280;46846;51.528;5.076;2022-09-09T05:34:11;100097.94;;;15.84;57.38
60974;BME280;46846;51.528;5.076;2022-09-09T05:36:36;100093.63;;;15.82;56.71
60974;BME280;46846;51.528;5.076;2022-09-09T05:39:02;100101.88;;;15.79;56.88
60974;BME280;46846;51.528;5.076;2022-09-09T05:41:28;100096.50;;;15.79;56.84
60974;BME280;46846;51.528;5.076;2022-09-09T05:43:54;100092.97;;;15.78;56.84
60974;BME280;46846;51.528;5.076;2022-09-09T05:46:22;100095.75;;;15.77;56.79
60974;BME280;46846;51.528;5.076;2022-09-09T05:48:48;100097.13;;;15.69;57.01
60974;BME280;46846;51.528;5.076;2022-09-09T05:51:25;100099.41;;;15.76;56.80
60974;BME280;46846;51.528;5.076;2022-09-09T05:53:52;100093.81;;;15.79;57.35
60974;BME280;46846;51.528;5.076;2022-09-09T05:56:19;100096.81;;;15.61;57.40
60974;BME280;46846;51.528;5.076;2022-09-09T05:58:45;100100.22;;;15.63;57.42
60974;BME280;46846;51.528;5.076;2022-09-09T06:01:19;100101.19;;;15.62;57.62
60974;BME280;46846;51.528;5.076;2022-09-09T06:03:46;100100.22;;;15.63;58.43
60974;BME280;46846;51.528;5.076;2022-09-09T06:06:16;100103.34;;;15.57;58.22
60974;BME280;46846;51.528;5.076;2022-09-09T06:08:53;100106.16;;;15.68;57.36
60974;BME280;46846;51.528;5.076;2022-09-09T06:11:24;100105.50;;;15.65;57.90
60974;BME280;46846;51.528;5.076;2022-09-09T06:13:50;100100.34;;;15.62;57.91
60974;BME280;46846;51.528;5.076;2022-09-09T06:16:25;100101.19;;;15.62;57.91
60974;BME280;46846;51.528;5.076;2022-09-09T06:18:52;100104.63;;;15.64;57.67
60974;BME280;46846;51.528;5.076;2022-09-09T06:21:23;100104.84;;;15.61;58.27
60974;BME280;46846;51.528;5.076;2022-09-09T06:23:49;100093.56;;;15.56;58.30
60974;BME280;46846;51.528;5.076;2022-09-09T06:26:18;100098.72;;;15.59;57.83
60974;BME280;46846;51.528;5.076;2022-09-09T06:28:48;100095.31;;;15.57;58.25
60974;BME280;46846;51.528;5.076;2022-09-09T06:31:16;100091.75;;;15.56;58.36
60974;BME280;46846;51.528;5.076;2022-09-09T06:33:52;100095.00;;;15.62;58.21
60974;BME280;46846;51.528;5.076;2022-09-09T06:36:20;100097.66;;;15.62;58.14
60974;BME280;46846;51.528;5.076;2022-09-09T06:38:46;100089.63;;;15.62;58.84
60974;BME280;46846;51.528;5.076;2022-09-09T06:41:14;100100.84;;;15.54;58.23
60974;BME280;46846;51.528;5.076;2022-09-09T06:43:40;100098.81;;;15.57;58.49
60974;BME280;46846;51.528;5.076;2022-09-09T06:46:14;100089.81;;;15.58;58.28
60974;BME280;46846;51.528;5.076;2022-09-09T06:48:40;100097.66;;;15.62;58.44
60974;BME280;46846;51.528;5.076;2022-09-09T06:53:36;100095.75;;;15.64;58.63
60974;BME280;46846;51.528;5.076;2022-09-09T06:56:27;100087.47;;;15.67;57.89
60974;BME280;46846;51.528;5.076;2022-09-09T06:58:55;100091.13;;;15.66;58.15
60974;BME280;46846;51.528;5.076;2022-09-09T07:01:26;100092.19;;;15.63;58.11
60974;BME280;46846;51.528;5.076;2022-09-09T07:03:53;100093.38;;;15.72;58.08
60974;BME280;46846;51.528;5.076;2022-09-09T07:06:30;100096.81;;;15.61;58.29
60974;BME280;46846;51.528;5.076;2022-09-09T07:09:01;100086.81;;;15.63;58.47
60974;BME280;46846;51.528;5.076;2022-09-09T07:11:32;100091.22;;;15.64;58.65
60974;BME280;46846;51.528;5.076;2022-09-09T07:13:59;100087.59;;;15.65;58.39
60974;BME280;46846;51.528;5.076;2022-09-09T07:16:25;100086.41;;;15.69;58.24
60974;BME280;46846;51.528;5.076;2022-09-09T07:18:53;100090.72;;;15.72;58.54
60974;BME280;46846;51.528;5.076;2022-09-09T07:21:23;100097.88;;;15.71;58.66
60974;BME280;46846;51.528;5.076;2022-09-09T07:23:49;100092.75;;;15.68;58.75
60974;BME280;46846;51.528;5.076;2022-09-09T07:26:17;100091.78;;;15.69;59.30
60974;BME280;46846;51.528;5.076;2022-09-09T07:28:45;100088.91;;;15.72;58.90
60974;BME280;46846;51.528;5.076;2022-09-09T07:31:19;100085.66;;;15.67;59.34
60974;BME280;46846;51.528;5.076;2022-09-09T07:33:46;100089.66;;;15.75;59.91
60974;BME280;46846;51.528;5.076;2022-09-09T07:38:44;100095.19;;;15.71;58.86
60974;BME280;46846;51.528;5.076;2022-09-09T07:41:13;100086.31;;;15.71;59.09
60974;BME280;46846;51.528;5.076;2022-09-09T07:43:43;100090.38;;;15.77;59.28
60974;BME280;46846;51.528;5.076;2022-09-09T07:46:10;100092.97;;;15.78;59.23
60974;BME280;46846;51.528;5.076;2022-09-09T07:48:37;100084.94;;;15.78;60.37
60974;BME280;46846;51.528;5.076;2022-09-09T07:51:08;100085.03;;;15.77;59.25
60974;BME280;46846;51.528;5.076;2022-09-09T07:53:36;100089.31;;;15.79;59.52
60974;BME280;46846;51.528;5.076;2022-09-09T07:56:10;100084.06;;;15.78;59.26
60974;BME280;46846;51.528;5.076;2022-09-09T07:58:37;100080.41;;;15.79;59.96
60974;BME280;46846;51.528;5.076;2022-09-09T08:01:10;100084.59;;;15.83;59.10
60974;BME280;46846;51.528;5.076;2022-09-09T08:03:37;100084.69;;;15.81;59.57
60974;BME280;46846;51.528;5.076;2022-09-09T08:06:03;100088.25;;;15.82;60.20
60974;BME280;46846;51.528;5.076;2022-09-09T08:08:30;100093.06;;;15.90;59.99
60974;BME280;46846;51.528;5.076;2022-09-09T08:11:08;100095.88;;;15.88;59.83
60974;BME280;46846;51.528;5.076;2022-09-09T08:13:38;100095.44;;;15.81;59.82
60974;BME280;46846;51.528;5.076;2022-09-09T08:16:12;100094.91;;;15.89;59.65
60974;BME280;46846;51.528;5.076;2022-09-09T08:18:38;100095.75;;;15.90;59.74
60974;BME280;46846;51.528;5.076;2022-09-09T08:21:13;100098.38;;;15.91;59.85
60974;BME280;46846;51.528;5.076;2022-09-09T08:23:41;100109.31;;;15.88;60.14
60974;BME280;46846;51.528;5.076;2022-09-09T08:26:12;100105.19;;;15.82;60.09
60974;BME280;46846;51.528;5.076;2022-09-09T08:28:39;100097.16;;;15.82;60.09
60974;BME280;46846;51.528;5.076;2022-09-09T08:31:13;100097.06;;;15.84;60.57
60974;BME280;46846;51.528;5.076;2022-09-09T08:33:40;100103.66;;;15.93;60.26
60974;BME280;46846;51.528;5.076;2022-09-09T08:36:09;100094.31;;;15.98;59.54
60974;BME280;46846;51.528;5.076;2022-09-09T08:38:35;100100.75;;;15.96;59.98
60974;BME280;46846;51.528;5.076;2022-09-09T08:43:46;100107.31;;;16.05;60.23
60974;BME280;46846;51.528;5.076;2022-09-09T08:51:48;100105.78;;;16.01;59.76
60974;BME280;46846;51.528;5.076;2022-09-09T08:54:15;100114.81;;;15.99;60.11
60974;BME280;46846;51.528;5.076;2022-09-09T08:56:40;100112.44;;;16.08;60.87
60974;BME280;46846;51.528;5.076;2022-09-09T08:59:09;100116.97;;;16.07;60.42
60974;BME280;46846;51.528;5.076;2022-09-09T09:04:38;100121.28;;;16.10;59.93
60974;BME280;46846;51.528;5.076;2022-09-09T09:07:18;100122.00;;;15.99;60.01
60974;BME280;46846;51.528;5.076;2022-09-09T09:12:32;100128.22;;;15.99;60.73
60974;BME280;46846;51.528;5.076;2022-09-09T09:15:00;100139.50;;;16.05;60.80
60974;BME280;46846;51.528;5.076;2022-09-09T09:17:28;100138.13;;;16.12;60.58
60974;BME280;46846;51.528;5.076;2022-09-09T09:19:56;100136.09;;;16.03;60.81
60974;BME280;46846;51.528;5.076;2022-09-09T09:30:38;100140.47;;;16.17;60.24
60974;BME280;46846;51.528;5.076;2022-09-09T09:35:49;100136.00;;;16.17;60.97
60974;BME280;46846;51.528;5.076;2022-09-09T09:38:18;100141.97;;;16.08;60.71
60974;BME280;46846;51.528;5.076;2022-09-09T09:40:52;100142.09;;;16.19;60.66
60974;BME280;46846;51.528;5.076;2022-09-09T09:43:53;100136.19;;;16.14;60.88
60974;BME280;46846;51.528;5.076;2022-09-09T09:46:21;100142.28;;;16.16;61.26
60974;BME280;46846;51.528;5.076;2022-09-09T09:49:02;100140.47;;;16.17;61.02
60974;BME280;46846;51.528;5.076;2022-09-09T09:51:29;100134.59;;;16.24;61.70
60974;BME280;46846;51.528;5.076;2022-09-09T09:54:23;100133.81;;;16.22;60.64
60974;BME280;46846;51.528;5.076;2022-09-09T09:56:52;100144.31;;;16.12;60.99
60974;BME280;46846;51.528;5.076;2022-09-09T10:01:52;100134.69;;;16.23;61.02
60974;BME280;46846;51.528;5.076;2022-09-09T10:04:20;100139.19;;;16.22;60.88
60974;BME280;46846;51.528;5.076;2022-09-09T10:06:48;100136.19;;;16.14;61.28
60974;BME280;46846;51.528;5.076;2022-09-09T10:23:04;100131.25;;;16.21;61.35
60974;BME280;46846;51.528;5.076;2022-09-09T10:28:36;100134.69;;;16.23;61.48
60974;BME280;46846;51.528;5.076;2022-09-09T10:36:29;100142.66;;;16.24;62.63
60974;BME280;46846;51.528;5.076;2022-09-09T10:42:12;100138.44;;;16.33;62.54
60974;BME280;46846;51.528;5.076;2022-09-09T10:44:55;100135.25;;;16.28;63.26
60974;BME280;46846;51.528;5.076;2022-09-09T10:55:42;100137.06;;;16.27;63.18
60974;BME280;46846;51.528;5.076;2022-09-09T10:58:14;100135.25;;;16.28;64.03
60974;BME280;46846;51.528;5.076;2022-09-09T11:00:44;100134.69;;;16.36;63.96
60974;BME280;46846;51.528;5.076;2022-09-09T11:03:21;100134.69;;;16.36;63.32
60974;BME280;46846;51.528;5.076;2022-09-09T11:06:12;100134.34;;;16.40;62.94
60974;BME280;46846;51.528;5.076;2022-09-09T11:08:39;100135.84;;;16.32;63.82
60974;BME280;46846;51.528;5.076;2022-09-09T11:11:15;100143.47;;;16.38;63.43
60974;BME280;46846;51.528;5.076;2022-09-09T11:19:11;100140.16;;;16.34;63.60
60974;BME280;46846;51.528;5.076;2022-09-09T11:21:45;100132.22;;;16.33;63.68
60974;BME280;46846;51.528;5.076;2022-09-09T11:24:20;100141.56;;;16.40;63.88
60974;BME280;46846;51.528;5.076;2022-09-09T11:27:09;100135.44;;;16.38;63.62
60974;BME280;46846;51.528;5.076;2022-09-09T11:30:02;100138.00;;;16.39;63.52
60974;BME280;46846;51.528;5.076;2022-09-09T11:35:52;100139.53;;;16.44;63.08
60974;BME280;46846;51.528;5.076;2022-09-09T11:38:27;100126.84;;;16.46;63.49
60974;BME280;46846;51.528;5.076;2022-09-09T11:40:56;100130.16;;;16.49;63.60
60974;BME280;46846;51.528;5.076;2022-09-09T11:43:28;100128.66;;;16.45;63.55
60974;BME280;46846;51.528;5.076;2022-09-09T11:45:57;100137.91;;;16.54;64.13
60974;BME280;46846;51.528;5.076;2022-09-09T11:51:07;100141.34;;;16.43;63.86
60974;BME280;46846;51.528;5.076;2022-09-09T11:53:34;100141.97;;;16.47;63.83
60974;BME280;46846;51.528;5.076;2022-09-09T11:56:06;100140.69;;;16.52;63.57
60974;BME280;46846;51.528;5.076;2022-09-09T11:58:40;100131.00;;;16.50;63.80
60974;BME280;46846;51.528;5.076;2022-09-09T12:01:26;100137.78;;;16.56;63.59
60974;BME280;46846;51.528;5.076;2022-09-09T12:06:43;100129.31;;;16.62;63.37
60974;BME280;46846;51.528;5.076;2022-09-09T12:09:27;100137.47;;;16.60;63.21
60974;BME280;46846;51.528;5.076;2022-09-09T12:12:46;100134.25;;;16.55;63.37
60974;BME280;46846;51.528;5.076;2022-09-09T12:17:28;100132.00;;;16.62;63.12
60974;BME280;46846;51.528;5.076;2022-09-09T12:25:33;100132.06;;;16.73;62.95
60974;BME280;46846;51.528;5.076;2022-09-09T12:28:15;100136.56;;;16.73;63.10
60974;BME280;46846;51.528;5.076;2022-09-09T12:31:06;100140.22;;;16.72;63.13
60974;BME280;46846;51.528;5.076;2022-09-09T12:33:39;100139.88;;;16.76;63.76
60974;BME280;46846;51.528;5.076;2022-09-09T12:36:14;100132.59;;;16.78;63.25
60974;BME280;46846;51.528;5.076;2022-09-09T12:38:41;100132.72;;;16.77;64.25
60974;BME280;46846;51.528;5.076;2022-09-09T12:41:28;100137.09;;;16.78;63.35
60974;BME280;46846;51.528;5.076;2022-09-09T12:44:09;100129.91;;;16.78;63.31
60974;BME280;46846;51.528;5.076;2022-09-09T12:46:42;100130.13;;;16.88;63.24
60974;BME280;46846;51.528;5.076;2022-09-09T12:49:42;100120.22;;;16.89;63.15
60974;BME280;46846;51.528;5.076;2022-09-09T12:52:14;100127.63;;;16.85;63.18
60974;BME280;46846;51.528;5.076;2022-09-09T12:54:44;100126.31;;;16.91;63.09
60974;BME280;46846;51.528;5.076;2022-09-09T12:57:12;100121.38;;;16.98;63.38
60974;BME280;46846;51.528;5.076;2022-09-09T12:59:40;100123.19;;;16.97;63.35
60974;BME280;46846;51.528;5.076;2022-09-09T13:02:22;100130.09;;;17.01;62.88
60974;BME280;46846;51.528;5.076;2022-09-09T13:04:48;100123.41;;;17.07;62.57
60974;BME280;46846;51.528;5.076;2022-09-09T13:07:16;100117.69;;;17.12;64.40
60974;BME280;46846;51.528;5.076;2022-09-09T13:09:42;100115.44;;;17.05;62.77
60974;BME280;46846;51.528;5.076;2022-09-09T13:12:19;100121.69;;;17.06;62.53
60974;BME280;46846;51.528;5.076;2022-09-09T13:14:54;100117.59;;;17.13;62.72
60974;BME280;46846;51.528;5.076;2022-09-09T13:17:26;100110.72;;;17.09;62.40
60974;BME280;46846;51.528;5.076;2022-09-09T13:19:54;100119.06;;;17.17;62.17
60974;BME280;46846;51.528;5.076;2022-09-09T13:22:41;100122.53;;;17.19;62.06
60974;BME280;46846;51.528;5.076;2022-09-09T13:27:38;100118.22;;;17.17;62.53
60974;BME280;46846;51.528;5.076;2022-09-09T13:30:33;100120.31;;;17.25;62.00
60974;BME280;46846;51.528;5.076;2022-09-09T13:33:04;100117.34;;;17.16;62.20
60974;BME280;46846;51.528;5.076;2022-09-09T13:35:30;100115.19;;;17.21;62.12
60974;BME280;46846;51.528;5.076;2022-09-09T13:37:57;100115.13;;;17.34;62.11
60974;BME280;46846;51.528;5.076;2022-09-09T13:40:23;100111.09;;;17.40;63.23
60974;BME280;46846;51.528;5.076;2022-09-09T13:42:55;100113.31;;;17.35;61.83
60974;BME280;46846;51.528;5.076;2022-09-09T13:45:24;100118.44;;;17.38;62.06
60974;BME280;46846;51.528;5.076;2022-09-09T13:47:52;100109.81;;;17.46;61.89
60974;BME280;46846;51.528;5.076;2022-09-09T13:50:28;100112.25;;;17.49;60.96
60974;BME280;46846;51.528;5.076;2022-09-09T13:52:58;100108.22;;;17.43;61.46
60974;BME280;46846;51.528;5.076;2022-09-09T13:55:25;100115.94;;;17.48;61.09
60974;BME280;46846;51.528;5.076;2022-09-09T13:57:52;100113.97;;;17.50;61.90
60974;BME280;46846;51.528;5.076;2022-09-09T14:00:18;100111.00;;;17.42;61.48
60974;BME280;46846;51.528;5.076;2022-09-09T14:02:44;100111.00;;;17.42;61.38
60974;BME280;46846;51.528;5.076;2022-09-09T14:05:10;100114.56;;;17.42;61.46
60974;BME280;46846;51.528;5.076;2022-09-09T14:07:37;100111.25;;;17.39;61.65
60974;BME280;46846;51.528;5.076;2022-09-09T14:10:04;100114.31;;;17.45;61.64
60974;BME280;46846;51.528;5.076;2022-09-09T14:12:30;100113.75;;;17.53;61.42
60974;BME280;46846;51.528;5.076;2022-09-09T14:14:55;100106.31;;;17.57;61.00
60974;BME280;46846;51.528;5.076;2022-09-09T14:17:20;100110.72;;;17.58;61.02
60974;BME280;46846;51.528;5.076;2022-09-09T14:19:47;100114.25;;;17.58;61.09
60974;BME280;46846;51.528;5.076;2022-09-09T14:22:12;100114.38;;;17.57;61.03
60974;BME280;46846;51.528;5.076;2022-09-09T14:24:38;100110.59;;;17.59;60.71
60974;BME280;46846;51.528;5.076;2022-09-09T14:27:03;100115.38;;;17.67;61.22
60974;BME280;46846;51.528;5.076;2022-09-09T14:29:28;100115.16;;;17.70;60.54
60974;BME280;46846;51.528;5.076;2022-09-09T14:31:54;100122.25;;;17.71;60.58
60974;BME280;46846;51.528;5.076;2022-09-09T14:34:19;100122.22;;;17.60;61.12
60974;BME280;46846;51.528;5.076;2022-09-09T14:36:45;100137.72;;;17.56;60.82
60974;BME280;46846;51.528;5.076;2022-09-09T14:39:10;100151.59;;;17.63;60.93
60974;BME280;46846;51.528;5.076;2022-09-09T14:41:36;100146.19;;;17.63;62.02
60974;BME280;46846;51.528;5.076;2022-09-09T14:44:01;100151.28;;;17.55;61.28
60974;BME280;46846;51.528;5.076;2022-09-09T14:46:27;100160.13;;;17.57;61.47
60974;BME280;46846;51.528;5.076;2022-09-09T14:48:52;100151.06;;;17.58;61.91
60974;BME280;46846;51.528;5.076;2022-09-09T14:51:21;100139.94;;;17.62;62.25
60974;BME280;46846;51.528;5.076;2022-09-09T14:53:56;100146.94;;;17.65;61.30
60974;BME280;46846;51.528;5.076;2022-09-09T14:56:28;100155.22;;;17.62;62.01
60974;BME280;46846;51.528;5.076;2022-09-09T14:58:56;100151.78;;;17.60;61.90
60974;BME280;46846;51.528;5.076;2022-09-09T15:01:22;100147.03;;;17.63;61.48
60974;BME280;46846;51.528;5.076;2022-09-09T15:03:52;100144.13;;;17.67;61.68
60974;BME280;46846;51.528;5.076;2022-09-09T15:06:19;100142.19;;;17.69;61.66
60974;BME280;46846;51.528;5.076;2022-09-09T15:08:45;100143.91;;;17.70;62.58
60974;BME280;46846;51.528;5.076;2022-09-09T15:11:13;100150.16;;;17.70;62.01
60974;BME280;46846;51.528;5.076;2022-09-09T15:13:40;100144.75;;;17.70;61.99
60974;BME280;46846;51.528;5.076;2022-09-09T15:16:08;100144.63;;;17.72;62.09
60974;BME280;46846;51.528;5.076;2022-09-09T15:18:34;100152.47;;;17.75;62.66